Time;durP1;ratioP1;P1;durP2;ratioP2;P2;SDS_P1;SDS_P2;PMS_P1;PMS_P2;Temp;Humidity;BMP_temperature;BMP_pressure;BME280_temperature;BME280_humidity;BME280_pressure;Samples;Min_cycle;Max_cycle;Signal;HPM_P1;HPM_P2
2022/09/11 00:02:03;;;;;;;1.02;0.95;;;;;;;;;;4974648;28;20062;-68
2022/09/11 00:04:29;;;;;;;1.33;1.20;;;;;;;;;;4973554;28;20174;-69
2022/09/11 00:06:54;;;;;;;1.02;0.90;;;;;;;;;;4972863;28;20035;-68
2022/09/11 00:09:19;;;;;;;1.33;1.10;;;;;;;;;;4974532;28;20461;-68
2022/09/11 00:11:44;;;;;;;2.38;1.23;;;;;;;;;;4974981;28;20101;-69
2022/09/11 00:14:13;;;;;;;3.67;1.00;;;;;;;;;;4973504;28;20053;-68
2022/09/11 00:16:40;;;;;;;1.30;1.20;;;;;;;;;;4973925;28;20038;-69
2022/09/11 00:19:07;;;;;;;0.95;0.95;;;;;;;;;;4974688;28;20100;-68
2022/09/11 00:21:32;;;;;;;1.00;1.00;;;;;;;;;;4974585;28;20030;-69
2022/09/11 00:23:57;;;;;;;0.82;0.75;;;;;;;;;;4973231;28;20022;-69
2022/09/11 00:26:23;;;;;;;1.10;1.00;;;;;;;;;;4973737;28;20037;-69
2022/09/11 00:28:49;;;;;;;1.30;1.30;;;;;;;;;;4973407;28;20054;-69
2022/09/11 00:31:16;;;;;;;1.05;1.00;;;;;;;;;;4971481;28;20034;-69
2022/09/11 00:33:42;;;;;;;1.95;1.08;;;;;;;;;;4976077;28;20048;-69
2022/09/11 00:36:11;;;;;;;1.13;1.13;;;;;;;;;;4972772;28;20031;-69
2022/09/11 00:38:36;;;;;;;1.20;1.10;;;;;;;;;;4972292;28;20074;-68
2022/09/11 00:41:03;;;;;;;0.73;0.73;;;;;;;;;;4973036;28;20193;-68
2022/09/11 00:43:47;;;;;;;1.05;1.02;;;;;;;;;;4971555;28;20174;-69
2022/09/11 00:46:12;;;;;;;1.70;1.25;;;;;;;;;;4980908;28;20073;-68
2022/09/11 00:48:38;;;;;;;0.95;0.95;;;;;;;;;;4972666;28;20532;-69
2022/09/11 00:51:03;;;;;;;0.93;0.93;;;;;;;;;;4972098;28;20446;-69
2022/09/11 00:53:30;;;;;;;1.33;0.98;;;;;;;;;;4974454;28;20403;-69
2022/09/11 00:55:57;;;;;;;1.25;1.15;;;;;;;;;;4974279;28;20050;-68
2022/09/11 00:58:25;;;;;;;4.93;1.10;;;;;;;;;;4972692;28;20031;-68
2022/09/11 01:00:51;;;;;;;1.55;1.30;;;;;;;;;;4972367;28;20023;-69
2022/09/11 01:03:16;;;;;;;1.10;1.10;;;;;;;;;;4972739;28;20069;-69
2022/09/11 01:05:43;;;;;;;1.02;1.00;;;;;;;;;;4977023;28;20114;-69
2022/09/11 01:08:09;;;;;;;1.10;1.10;;;;;;;;;;4976038;28;20038;-69
2022/09/11 01:10:44;;;;;;;1.10;1.00;;;;;;;;;;4978279;28;20057;-69
2022/09/11 01:13:24;;;;;;;1.20;1.20;;;;;;;;;;4976893;28;20038;-68
2022/09/11 01:16:02;;;;;;;3.17;0.85;;;;;;;;;;4973918;28;20067;-68
2022/09/11 01:18:33;;;;;;;1.00;1.00;;;;;;;;;;4972209;28;20030;-68
2022/09/11 01:21:17;;;;;;;1.75;1.15;;;;;;;;;;4975835;28;20034;-69
2022/09/11 01:24:01;;;;;;;1.45;0.88;;;;;;;;;;4976031;28;20077;-69
2022/09/11 01:26:31;;;;;;;1.00;1.00;;;;;;;;;;4973115;28;20034;-68
2022/09/11 01:28:59;;;;;;;0.98;0.98;;;;;;;;;;4971661;28;20101;-69
2022/09/11 01:31:29;;;;;;;1.55;1.10;;;;;;;;;;4975997;28;20023;-68
2022/09/11 01:34:16;;;;;;;1.13;1.13;;;;;;;;;;4976128;28;20094;-68
2022/09/11 01:36:45;;;;;;;1.33;1.20;;;;;;;;;;4976831;28;20552;-69
2022/09/11 01:39:11;;;;;;;0.80;0.80;;;;;;;;;;4976207;28;20109;-69
2022/09/11 01:41:36;;;;;;;1.40;1.33;;;;;;;;;;4975410;28;20076;-69
2022/09/11 01:44:02;;;;;;;1.30;1.20;;;;;;;;;;4977188;28;20026;-68
2022/09/11 01:46:29;;;;;;;1.17;1.10;;;;;;;;;;4975839;28;20041;-67
2022/09/11 01:49:02;;;;;;;1.00;1.00;;;;;;;;;;4975799;28;20041;-69
2022/09/11 01:51:29;;;;;;;1.35;1.33;;;;;;;;;;4976192;28;20038;-69
2022/09/11 01:53:55;;;;;;;1.48;1.10;;;;;;;;;;4975860;28;20026;-69
2022/09/11 01:56:23;;;;;;;2.42;1.23;;;;;;;;;;4975512;28;20039;-69
2022/09/11 01:58:52;;;;;;;0.93;0.93;;;;;;;;;;4975050;28;20035;-69
2022/09/11 02:01:19;;;;;;;1.10;1.00;;;;;;;;;;4975299;28;20069;-69
2022/09/11 02:03:53;;;;;;;2.25;1.08;;;;;;;;;;4975715;28;20030;-69
2022/09/11 02:06:23;;;;;;;1.88;1.00;;;;;;;;;;4975956;28;20038;-69
2022/09/11 02:08:50;;;;;;;0.88;0.88;;;;;;;;;;4975346;28;20068;-68
2022/09/11 02:11:16;;;;;;;2.05;1.20;;;;;;;;;;4974246;28;20034;-69
2022/09/11 02:13:49;;;;;;;1.10;1.00;;;;;;;;;;4975693;28;20592;-69
2022/09/11 02:16:20;;;;;;;1.67;1.10;;;;;;;;;;4974694;28;20149;-68
2022/09/11 02:18:57;;;;;;;1.27;1.17;;;;;;;;;;4973802;28;20043;-68
2022/09/11 02:21:23;;;;;;;2.05;1.30;;;;;;;;;;4976357;28;20057;-68
2022/09/11 02:23:48;;;;;;;2.35;1.00;;;;;;;;;;4983037;28;20937;-68
2022/09/11 02:26:17;;;;;;;1.30;1.20;;;;;;;;;;4975515;28;20519;-68
2022/09/11 02:28:42;;;;;;;1.60;1.42;;;;;;;;;;4974982;28;20051;-68
2022/09/11 02:31:07;;;;;;;1.00;1.00;;;;;;;;;;4975520;28;20027;-68
2022/09/11 02:33:37;;;;;;;1.00;1.00;;;;;;;;;;4973511;28;20459;-68
2022/09/11 02:36:12;;;;;;;0.90;0.90;;;;;;;;;;4976350;28;20030;-70
2022/09/11 02:38:48;;;;;;;2.50;1.52;;;;;;;;;;4974312;28;20038;-67
2022/09/11 02:41:18;;;;;;;1.40;1.30;;;;;;;;;;4975139;28;20089;-68
2022/09/11 02:43:56;;;;;;;2.13;1.30;;;;;;;;;;4974766;28;20085;-67
2022/09/11 02:46:24;;;;;;;2.55;1.50;;;;;;;;;;4976027;28;20026;-66
2022/09/11 02:48:53;;;;;;;1.48;1.23;;;;;;;;;;4971540;28;20094;-69
2022/09/11 02:51:37;;;;;;;1.13;1.13;;;;;;;;;;4986796;28;20922;-68
2022/09/11 02:54:02;;;;;;;1.33;1.25;;;;;;;;;;4974383;28;20019;-68
2022/09/11 02:56:34;;;;;;;1.20;1.20;;;;;;;;;;4975063;28;20034;-69
2022/09/11 02:59:02;;;;;;;1.42;1.33;;;;;;;;;;4974702;28;20027;-68
2022/09/11 03:01:27;;;;;;;1.90;1.35;;;;;;;;;;4973689;28;20077;-68
2022/09/11 03:03:53;;;;;;;1.33;1.27;;;;;;;;;;4974543;28;20030;-68
2022/09/11 03:06:20;;;;;;;3.22;1.33;;;;;;;;;;4974319;28;20045;-68
2022/09/11 03:08:45;;;;;;;1.20;1.20;;;;;;;;;;4975018;28;20041;-67
2022/09/11 03:11:11;;;;;;;1.20;1.10;;;;;;;;;;4973227;28;20022;-67
2022/09/11 03:13:36;;;;;;;1.40;1.40;;;;;;;;;;4974223;28;20022;-67
2022/09/11 03:16:04;;;;;;;1.23;1.20;;;;;;;;;;4972712;28;20038;-68
2022/09/11 03:18:30;;;;;;;1.30;1.30;;;;;;;;;;4974109;28;20102;-68
2022/09/11 03:20:55;;;;;;;2.08;1.50;;;;;;;;;;4973191;28;20073;-68
2022/09/11 03:23:24;;;;;;;1.45;1.45;;;;;;;;;;4973076;28;20077;-68
2022/09/11 03:25:49;;;;;;;1.42;1.33;;;;;;;;;;4972881;28;20076;-68
2022/09/11 03:28:15;;;;;;;3.20;1.55;;;;;;;;;;4971493;28;20051;-68
2022/09/11 03:30:40;;;;;;;1.23;1.23;;;;;;;;;;4973122;28;20026;-68
2022/09/11 03:33:06;;;;;;;1.70;1.52;;;;;;;;;;4973978;28;20596;-67
2022/09/11 03:35:31;;;;;;;2.17;1.63;;;;;;;;;;4972469;28;20039;-68
2022/09/11 03:37:57;;;;;;;1.50;1.40;;;;;;;;;;4975766;28;20150;-69
2022/09/11 03:40:22;;;;;;;2.97;1.30;;;;;;;;;;4973631;28;20482;-68
2022/09/11 03:42:47;;;;;;;1.40;1.27;;;;;;;;;;4973955;28;20026;-69
2022/09/11 03:45:13;;;;;;;1.63;1.50;;;;;;;;;;4974545;28;20049;-69
2022/09/11 03:47:39;;;;;;;4.65;1.55;;;;;;;;;;4974131;28;20031;-68
2022/09/11 03:50:05;;;;;;;3.30;1.50;;;;;;;;;;4975001;28;20028;-69
2022/09/11 03:52:30;;;;;;;1.77;1.67;;;;;;;;;;4974952;28;20557;-68
2022/09/11 03:54:56;;;;;;;1.73;1.35;;;;;;;;;;4973290;28;20548;-69
2022/09/11 03:57:21;;;;;;;2.50;1.98;;;;;;;;;;4973795;28;20968;-68
2022/09/11 03:59:46;;;;;;;1.77;1.60;;;;;;;;;;4974998;28;20365;-68
2022/09/11 04:02:12;;;;;;;4.00;1.60;;;;;;;;;;4972015;28;20105;-68
2022/09/11 04:04:37;;;;;;;1.40;1.30;;;;;;;;;;4973428;28;20378;-68
2022/09/11 04:07:02;;;;;;;1.60;1.50;;;;;;;;;;4976717;28;20088;-69
2022/09/11 04:09:27;;;;;;;1.92;1.50;;;;;;;;;;4973769;28;20149;-69
2022/09/11 04:11:53;;;;;;;2.10;1.88;;;;;;;;;;4973177;28;20512;-68
2022/09/11 04:14:21;;;;;;;1.67;1.50;;;;;;;;;;4973721;28;20022;-68
2022/09/11 04:16:46;;;;;;;1.75;1.30;;;;;;;;;;4973136;28;20092;-67
2022/09/11 04:19:12;;;;;;;1.60;1.50;;;;;;;;;;4972246;28;20027;-69
2022/09/11 04:21:38;;;;;;;1.10;1.10;;;;;;;;;;4973544;28;20484;-69
2022/09/11 04:24:04;;;;;;;1.30;1.30;;;;;;;;;;4973318;28;20062;-69
2022/09/11 04:26:30;;;;;;;1.27;1.20;;;;;;;;;;4975273;28;20386;-68
2022/09/11 04:28:57;;;;;;;1.13;1.02;;;;;;;;;;4973188;28;20062;-65
2022/09/11 04:31:22;;;;;;;4.88;1.20;;;;;;;;;;4971498;28;20018;-69
2022/09/11 04:33:48;;;;;;;2.05;1.30;;;;;;;;;;4972887;28;20563;-71
2022/09/11 04:36:16;;;;;;;1.30;1.20;;;;;;;;;;4972239;28;20583;-71
2022/09/11 04:38:42;;;;;;;1.88;1.30;;;;;;;;;;4973214;28;20133;-68
2022/09/11 04:41:07;;;;;;;2.92;1.40;;;;;;;;;;5004133;28;20026;-67
2022/09/11 04:43:33;;;;;;;1.40;1.30;;;;;;;;;;4972154;28;20027;-67
2022/09/11 04:45:59;;;;;;;3.25;1.48;;;;;;;;;;4972960;28;20041;-66
2022/09/11 04:48:24;;;;;;;2.40;1.25;;;;;;;;;;4968557;28;20027;-67
2022/09/11 04:50:57;;;;;;;2.80;1.30;;;;;;;;;;4969300;28;20053;-67
2022/09/11 04:53:22;;;;;;;1.70;1.40;;;;;;;;;;4972884;28;20442;-68
2022/09/11 04:55:49;;;;;;;1.10;1.10;;;;;;;;;;4971353;28;20039;-66
2022/09/11 04:58:14;;;;;;;1.42;1.25;;;;;;;;;;4972351;28;20030;-67
2022/09/11 05:00:39;;;;;;;1.67;1.60;;;;;;;;;;4972903;28;20393;-67
2022/09/11 05:03:05;;;;;;;2.42;1.40;;;;;;;;;;4971193;28;20814;-68
2022/09/11 05:05:30;;;;;;;1.52;1.25;;;;;;;;;;4971790;28;20030;-68
2022/09/11 05:07:55;;;;;;;1.60;1.50;;;;;;;;;;4972943;28;20612;-69
2022/09/11 05:10:20;;;;;;;1.45;1.38;;;;;;;;;;4972696;28;20026;-67
2022/09/11 05:12:46;;;;;;;2.38;1.40;;;;;;;;;;4973486;28;20636;-67
2022/09/11 05:15:11;;;;;;;1.60;1.50;;;;;;;;;;4972017;28;20532;-68
2022/09/11 05:17:38;;;;;;;2.60;1.27;;;;;;;;;;4972605;28;20014;-68
2022/09/11 05:20:03;;;;;;;1.83;1.65;;;;;;;;;;4970823;28;20039;-67
2022/09/11 05:22:29;;;;;;;1.60;1.50;;;;;;;;;;4969269;28;20038;-67
2022/09/11 05:24:54;;;;;;;1.50;1.40;;;;;;;;;;4969847;28;20898;-66
2022/09/11 05:27:20;;;;;;;3.05;1.50;;;;;;;;;;4970837;28;20066;-69
2022/09/11 05:29:45;;;;;;;3.60;1.55;;;;;;;;;;4972291;28;20883;-68
2022/09/11 05:32:12;;;;;;;1.60;1.50;;;;;;;;;;4973317;28;20073;-68
2022/09/11 05:34:37;;;;;;;1.42;1.40;;;;;;;;;;4973988;28;20038;-68
2022/09/11 05:37:02;;;;;;;2.15;1.80;;;;;;;;;;4975084;28;20073;-68
2022/09/11 05:39:28;;;;;;;1.42;1.35;;;;;;;;;;4971074;28;20147;-67
2022/09/11 05:41:54;;;;;;;1.65;1.55;;;;;;;;;;4970603;28;20437;-63
2022/09/11 05:44:19;;;;;;;2.72;1.40;;;;;;;;;;4973210;28;20031;-67
2022/09/11 05:46:45;;;;;;;3.53;1.65;;;;;;;;;;4971757;28;20875;-67
2022/09/11 05:49:10;;;;;;;2.80;1.60;;;;;;;;;;4971917;28;20472;-64
2022/09/11 05:51:36;;;;;;;1.20;1.20;;;;;;;;;;4974577;28;20022;-67
2022/09/11 05:54:02;;;;;;;1.45;1.35;;;;;;;;;;4976423;28;20065;-68
2022/09/11 05:56:27;;;;;;;2.85;1.45;;;;;;;;;;4978087;28;20511;-68
2022/09/11 05:58:53;;;;;;;1.70;1.60;;;;;;;;;;4994490;28;20027;-64
2022/09/11 06:01:20;;;;;;;1.80;1.20;;;;;;;;;;4997647;28;20473;-66
2022/09/11 06:03:48;;;;;;;1.45;1.20;;;;;;;;;;4994191;28;20053;-65
2022/09/11 06:06:15;;;;;;;1.48;1.30;;;;;;;;;;4994712;28;20077;-67
2022/09/11 06:08:43;;;;;;;1.98;1.60;;;;;;;;;;4994135;28;20124;-66
2022/09/11 06:11:08;;;;;;;2.10;1.30;;;;;;;;;;4992693;28;20018;-66
2022/09/11 06:13:35;;;;;;;1.35;1.25;;;;;;;;;;4994662;28;20512;-65
2022/09/11 06:16:01;;;;;;;1.55;1.42;;;;;;;;;;4995518;28;20099;-66
2022/09/11 06:18:27;;;;;;;1.63;1.40;;;;;;;;;;4995423;28;20035;-67
2022/09/11 06:20:55;;;;;;;1.48;1.38;;;;;;;;;;4993068;28;20034;-67
2022/09/11 06:23:21;;;;;;;1.88;1.70;;;;;;;;;;4993648;28;20077;-66
2022/09/11 06:25:47;;;;;;;1.80;1.50;;;;;;;;;;4990681;28;20018;-66
2022/09/11 06:28:12;;;;;;;1.70;1.30;;;;;;;;;;4991881;28;20116;-67
2022/09/11 06:30:39;;;;;;;1.88;1.40;;;;;;;;;;4993062;28;20469;-68
2022/09/11 06:33:04;;;;;;;2.80;1.50;;;;;;;;;;5001826;28;20022;-67
2022/09/11 06:35:29;;;;;;;1.90;1.75;;;;;;;;;;4995108;28;20049;-67
2022/09/11 06:37:55;;;;;;;1.75;1.65;;;;;;;;;;5024991;28;20037;-66
2022/09/11 06:40:20;;;;;;;2.05;1.58;;;;;;;;;;4993262;28;20080;-66
2022/09/11 06:42:46;;;;;;;3.15;2.10;;;;;;;;;;4994950;28;20034;-66
2022/09/11 06:45:11;;;;;;;1.75;1.60;;;;;;;;;;4990063;28;20042;-65
2022/09/11 06:47:36;;;;;;;1.45;1.35;;;;;;;;;;4989804;28;20018;-67
2022/09/11 06:50:02;;;;;;;1.55;1.40;;;;;;;;;;4992677;28;20574;-67
2022/09/11 06:52:27;;;;;;;2.15;1.58;;;;;;;;;;4994721;28;20606;-67
2022/09/11 06:54:52;;;;;;;1.50;1.40;;;;;;;;;;4993098;28;20481;-61
2022/09/11 06:57:18;;;;;;;1.50;1.50;;;;;;;;;;4995483;28;20535;-64
2022/09/11 06:59:43;;;;;;;1.60;1.50;;;;;;;;;;4994116;28;20031;-63
2022/09/11 07:02:09;;;;;;;3.85;1.40;;;;;;;;;;4992629;28;20495;-64
2022/09/11 07:04:34;;;;;;;1.42;1.33;;;;;;;;;;4991131;28;20031;-61
2022/09/11 07:06:59;;;;;;;1.95;1.25;;;;;;;;;;5023094;28;20032;-66
2022/09/11 07:09:25;;;;;;;1.88;1.40;;;;;;;;;;4993941;28;20074;-63
2022/09/11 07:11:50;;;;;;;2.50;1.65;;;;;;;;;;4993101;28;20030;-63
2022/09/11 07:14:20;;;;;;;1.77;1.65;;;;;;;;;;4994157;28;20587;-63
2022/09/11 07:16:47;;;;;;;1.88;1.33;;;;;;;;;;4993742;28;20040;-67
2022/09/11 07:19:12;;;;;;;2.97;1.50;;;;;;;;;;4992398;28;20080;-63
2022/09/11 07:21:37;;;;;;;2.42;1.52;;;;;;;;;;4993443;28;20636;-63
2022/09/11 07:24:03;;;;;;;3.60;1.73;;;;;;;;;;4993555;28;20034;-63
2022/09/11 07:26:29;;;;;;;1.60;1.50;;;;;;;;;;4989852;28;20041;-63
2022/09/11 07:28:56;;;;;;;1.50;1.40;;;;;;;;;;4992126;28;20065;-63
2022/09/11 07:31:22;;;;;;;1.98;1.33;;;;;;;;;;4994731;28;20508;-63
2022/09/11 07:33:48;;;;;;;1.95;1.70;;;;;;;;;;4994424;28;20113;-64
2022/09/11 07:36:18;;;;;;;1.92;1.83;;;;;;;;;;4994331;28;20076;-63
2022/09/11 07:38:45;;;;;;;3.38;1.52;;;;;;;;;;4995186;28;20610;-62
2022/09/11 07:41:12;;;;;;;1.90;1.48;;;;;;;;;;4994400;28;20021;-63
2022/09/11 07:43:38;;;;;;;2.10;2.00;;;;;;;;;;4977248;28;20047;-63
2022/09/11 07:46:04;;;;;;;1.80;1.40;;;;;;;;;;4972423;28;20403;-64
2022/09/11 07:48:29;;;;;;;4.07;1.77;;;;;;;;;;4973518;28;20026;-65
2022/09/11 07:51:01;;;;;;;1.70;1.60;;;;;;;;;;4973306;28;20598;-64
2022/09/11 07:53:27;;;;;;;1.50;1.50;;;;;;;;;;4970817;28;20026;-65
2022/09/11 07:55:53;;;;;;;1.55;1.45;;;;;;;;;;4968652;28;20038;-65
2022/09/11 07:58:18;;;;;;;1.27;1.05;;;;;;;;;;4970868;28;20113;-64
2022/09/11 08:00:44;;;;;;;1.30;1.20;;;;;;;;;;4968723;28;20069;-63
2022/09/11 08:03:09;;;;;;;1.85;1.70;;;;;;;;;;4969319;28;20027;-63
2022/09/11 08:05:35;;;;;;;1.58;1.48;;;;;;;;;;4969890;28;20746;-63
2022/09/11 08:08:00;;;;;;;1.50;1.40;;;;;;;;;;4973538;28;20043;-64
2022/09/11 08:10:25;;;;;;;1.58;1.48;;;;;;;;;;4972936;28;20770;-63
2022/09/11 08:12:51;;;;;;;1.70;1.55;;;;;;;;;;4969855;28;20784;-64
2022/09/11 08:15:17;;;;;;;1.52;1.42;;;;;;;;;;4969163;28;20038;-63
2022/09/11 08:17:42;;;;;;;1.42;1.33;;;;;;;;;;4972598;28;20535;-61
2022/09/11 08:20:08;;;;;;;1.80;1.70;;;;;;;;;;4974557;28;20027;-62
2022/09/11 08:22:33;;;;;;;1.35;1.25;;;;;;;;;;4971818;28;20030;-61
2022/09/11 08:24:58;;;;;;;1.35;1.25;;;;;;;;;;4974647;28;20102;-59
2022/09/11 08:27:24;;;;;;;3.08;1.48;;;;;;;;;;4972780;28;20591;-62
2022/09/11 08:29:49;;;;;;;1.55;1.45;;;;;;;;;;4973311;28;20034;-60
2022/09/11 08:32:14;;;;;;;3.38;1.23;;;;;;;;;;4966352;28;20065;-65
2022/09/11 08:34:39;;;;;;;2.55;1.42;;;;;;;;;;4972869;28;20139;-67
2022/09/11 08:37:05;;;;;;;2.83;1.88;;;;;;;;;;4973459;28;20054;-65
2022/09/11 08:39:30;;;;;;;1.92;1.83;;;;;;;;;;4973490;28;20038;-66
2022/09/11 08:42:02;;;;;;;2.13;1.15;;;;;;;;;;4973064;28;20023;-63
2022/09/11 08:44:29;;;;;;;2.08;1.55;;;;;;;;;;4972274;28;20058;-63
2022/09/11 08:47:04;;;;;;;1.30;1.30;;;;;;;;;;4971917;28;20034;-62
2022/09/11 08:49:35;;;;;;;1.67;1.40;;;;;;;;;;4980422;28;20346;-64
2022/09/11 08:52:01;;;;;;;1.67;1.58;;;;;;;;;;4971528;28;20038;-63
2022/09/11 08:54:32;;;;;;;1.50;1.10;;;;;;;;;;4971832;28;20023;-63
2022/09/11 08:57:13;;;;;;;1.40;1.30;;;;;;;;;;4970868;28;20038;-63
2022/09/11 08:59:59;;;;;;;1.35;1.02;;;;;;;;;;4972054;28;20045;-64
2022/09/11 09:02:37;;;;;;;1.40;1.30;;;;;;;;;;4970237;28;20550;-63
2022/09/11 09:05:09;;;;;;;1.45;1.30;;;;;;;;;;4971191;28;20030;-63
2022/09/11 09:07:43;;;;;;;1.27;1.17;;;;;;;;;;4970908;28;20027;-63
2022/09/11 09:10:14;;;;;;;1.42;1.25;;;;;;;;;;4973386;28;20038;-64
2022/09/11 09:12:46;;;;;;;1.42;1.30;;;;;;;;;;4973309;28;20034;-65
2022/09/11 09:15:12;;;;;;;1.73;1.63;;;;;;;;;;4973715;28;20034;-66
2022/09/11 09:17:40;;;;;;;2.88;1.20;;;;;;;;;;4973112;28;20022;-64
2022/09/11 09:20:09;;;;;;;2.20;1.25;;;;;;;;;;4973392;28;20109;-65
2022/09/11 09:22:47;;;;;;;1.85;1.27;;;;;;;;;;4973097;28;20018;-64
2022/09/11 09:25:13;;;;;;;2.83;1.50;;;;;;;;;;4975073;28;20113;-64
2022/09/11 09:27:43;;;;;;;2.33;1.35;;;;;;;;;;4976197;28;20499;-65
2022/09/11 09:30:12;;;;;;;1.35;1.30;;;;;;;;;;4976258;28;20035;-64
2022/09/11 09:32:42;;;;;;;1.25;1.25;;;;;;;;;;4975785;28;20026;-64
2022/09/11 09:35:20;;;;;;;1.42;1.42;;;;;;;;;;4976727;28;20043;-64
2022/09/11 09:37:45;;;;;;;1.38;1.30;;;;;;;;;;4977200;28;20031;-64
2022/09/11 09:40:13;;;;;;;1.20;1.10;;;;;;;;;;4977021;28;20508;-64
2022/09/11 09:43:09;;;;;;;1.10;1.10;;;;;;;;;;4976743;28;20026;-64
2022/09/11 09:45:41;;;;;;;1.48;1.10;;;;;;;;;;4977994;28;20678;-63
2022/09/11 09:48:08;;;;;;;1.63;1.52;;;;;;;;;;4973301;28;20035;-65
2022/09/11 09:50:37;;;;;;;1.55;1.45;;;;;;;;;;4972439;28;20329;-64
2022/09/11 09:53:09;;;;;;;2.97;1.52;;;;;;;;;;4977168;28;20030;-65
2022/09/11 09:55:37;;;;;;;1.42;1.30;;;;;;;;;;4976422;28;20108;-64
2022/09/11 09:58:02;;;;;;;1.17;1.17;;;;;;;;;;4974519;28;20030;-64
2022/09/11 10:00:31;;;;;;;1.67;1.58;;;;;;;;;;4971110;28;20057;-65
2022/09/11 10:02:56;;;;;;;1.83;1.40;;;;;;;;;;4976999;28;20034;-65
2022/09/11 10:05:29;;;;;;;2.00;1.80;;;;;;;;;;4971622;28;20034;-65
2022/09/11 10:08:02;;;;;;;2.15;1.98;;;;;;;;;;4974386;28;20427;-65
2022/09/11 10:10:29;;;;;;;1.70;1.60;;;;;;;;;;4976001;28;20030;-65
2022/09/11 10:13:27;;;;;;;2.25;1.48;;;;;;;;;;4975365;28;20623;-65
2022/09/11 10:15:54;;;;;;;1.70;1.60;;;;;;;;;;4976806;28;20075;-64
2022/09/11 10:18:22;;;;;;;1.55;1.30;;;;;;;;;;4976071;28;20034;-65
2022/09/11 10:20:48;;;;;;;1.20;1.20;;;;;;;;;;4975419;28;20030;-64
2022/09/11 10:23:24;;;;;;;1.58;1.45;;;;;;;;;;4976984;28;20040;-65
2022/09/11 10:25:50;;;;;;;1.35;1.35;;;;;;;;;;4976390;28;20027;-64
2022/09/11 10:28:18;;;;;;;1.65;1.55;;;;;;;;;;4975988;28;20132;-65
2022/09/11 10:31:02;;;;;;;1.00;1.00;;;;;;;;;;4975705;28;20062;-64
2022/09/11 10:33:32;;;;;;;2.03;1.48;;;;;;;;;;5006530;28;20061;-65
2022/09/11 10:35:59;;;;;;;1.20;1.20;;;;;;;;;;4975478;28;20058;-66
2022/09/11 10:38:32;;;;;;;0.98;0.98;;;;;;;;;;4976583;28;20042;-65
2022/09/11 10:41:04;;;;;;;1.10;1.10;;;;;;;;;;4977222;28;20652;-64
2022/09/11 10:43:57;;;;;;;2.58;0.82;;;;;;;;;;4974996;28;20034;-64
2022/09/11 10:46:24;;;;;;;0.82;0.80;;;;;;;;;;4975297;28;20047;-64
2022/09/11 10:48:54;;;;;;;0.88;0.88;;;;;;;;;;4974878;28;20037;-64
2022/09/11 10:51:20;;;;;;;1.38;1.23;;;;;;;;;;4975575;28;20953;-64
2022/09/11 10:53:52;;;;;;;1.13;1.13;;;;;;;;;;4974318;28;20026;-66
2022/09/11 10:56:18;;;;;;;0.98;0.85;;;;;;;;;;4974962;28;20031;-64
2022/09/11 10:58:45;;;;;;;1.02;1.00;;;;;;;;;;4974764;28;20034;-65
2022/09/11 11:01:10;;;;;;;0.90;0.90;;;;;;;;;;4974696;28;20031;-65
2022/09/11 11:03:35;;;;;;;1.13;1.13;;;;;;;;;;4983754;28;20042;-67
2022/09/11 11:06:20;;;;;;;0.90;0.90;;;;;;;;;;4975475;28;20043;-65
2022/09/11 11:09:07;;;;;;;0.90;0.90;;;;;;;;;;4974652;28;20096;-64
2022/09/11 11:11:32;;;;;;;1.58;1.20;;;;;;;;;;4974777;28;20022;-65
2022/09/11 11:14:00;;;;;;;1.30;1.20;;;;;;;;;;4975630;28;20412;-64
2022/09/11 11:16:38;;;;;;;1.50;1.40;;;;;;;;;;4989084;28;20504;-65
2022/09/11 11:19:19;;;;;;;0.90;0.90;;;;;;;;;;4974480;28;20035;-64
2022/09/11 11:21:47;;;;;;;1.00;1.00;;;;;;;;;;4970373;28;20027;-65
2022/09/11 11:24:16;;;;;;;2.35;1.17;;;;;;;;;;4973834;28;20083;-65
2022/09/11 11:26:44;;;;;;;1.25;1.10;;;;;;;;;;4974871;28;20026;-64
2022/09/11 11:29:17;;;;;;;1.13;1.00;;;;;;;;;;4974208;28;20031;-64
2022/09/11 11:31:56;;;;;;;1.50;1.00;;;;;;;;;;4974060;28;20034;-65
2022/09/11 11:34:41;;;;;;;0.80;0.80;;;;;;;;;;4973894;28;20026;-65
2022/09/11 11:37:18;;;;;;;1.48;1.10;;;;;;;;;;4975825;28;20081;-65
2022/09/11 11:39:46;;;;;;;1.75;1.65;;;;;;;;;;4973825;28;20545;-64
2022/09/11 11:42:20;;;;;;;1.13;1.00;;;;;;;;;;4973960;28;20484;-64
2022/09/11 11:45:02;;;;;;;0.85;0.85;;;;;;;;;;4975301;28;20041;-64
2022/09/11 11:47:33;;;;;;;1.40;1.30;;;;;;;;;;4974938;28;20026;-64
2022/09/11 11:50:14;;;;;;;1.17;0.90;;;;;;;;;;4974093;28;20026;-64
2022/09/11 11:52:48;;;;;;;1.08;1.08;;;;;;;;;;4973992;28;20031;-65
2022/09/11 11:55:16;;;;;;;1.00;1.00;;;;;;;;;;4972855;28;20483;-64
2022/09/11 11:57:47;;;;;;;1.05;1.05;;;;;;;;;;4974126;28;20332;-65
2022/09/11 12:00:15;;;;;;;1.15;1.02;;;;;;;;;;4973798;28;20493;-64
2022/09/11 12:02:55;;;;;;;1.02;0.98;;;;;;;;;;4974406;28;20027;-66
2022/09/11 12:05:23;;;;;;;1.02;1.00;;;;;;;;;;4972947;28;20033;-63
2022/09/11 12:07:49;;;;;;;1.20;1.20;;;;;;;;;;5001710;28;20034;-63
2022/09/11 12:10:32;;;;;;;0.88;0.88;;;;;;;;;;4970470;28;20490;-64
2022/09/11 12:13:02;;;;;;;0.90;0.90;;;;;;;;;;4973428;28;20026;-66
2022/09/11 12:15:29;;;;;;;0.90;0.90;;;;;;;;;;4971118;28;20077;-66
2022/09/11 12:18:17;;;;;;;1.85;1.00;;;;;;;;;;4971645;28;20029;-66
2022/09/11 12:20:43;;;;;;;1.08;0.80;;;;;;;;;;4971107;28;20049;-66
2022/09/11 12:23:27;;;;;;;1.00;0.93;;;;;;;;;;4973215;28;20089;-64
2022/09/11 12:26:03;;;;;;;0.80;0.80;;;;;;;;;;4972688;28;20046;-65
2022/09/11 12:28:29;;;;;;;0.90;0.90;;;;;;;;;;4970931;28;20072;-63
2022/09/11 12:31:02;;;;;;;0.70;0.70;;;;;;;;;;4969643;28;20026;-64
2022/09/11 12:33:42;;;;;;;0.73;0.73;;;;;;;;;;4973625;28;20121;-64
2022/09/11 12:36:28;;;;;;;0.70;0.70;;;;;;;;;;4969753;28;20084;-64
2022/09/11 12:38:57;;;;;;;0.98;0.90;;;;;;;;;;4970494;28;20038;-65
2022/09/11 12:41:27;;;;;;;1.00;1.00;;;;;;;;;;4973471;28;20122;-65
2022/09/11 12:43:53;;;;;;;1.15;1.15;;;;;;;;;;4969980;28;20027;-65
2022/09/11 12:46:25;;;;;;;1.20;1.20;;;;;;;;;;4970346;28;20034;-65
2022/09/11 12:48:52;;;;;;;1.10;1.10;;;;;;;;;;4969138;28;20118;-64
2022/09/11 12:51:20;;;;;;;1.13;1.13;;;;;;;;;;4969245;28;20084;-69
2022/09/11 12:53:49;;;;;;;1.20;1.20;;;;;;;;;;4973487;28;20030;-63
2022/09/11 12:56:19;;;;;;;0.90;0.90;;;;;;;;;;4972334;28;20022;-64
2022/09/11 12:58:46;;;;;;;1.30;1.30;;;;;;;;;;4967362;28;20141;-61
2022/09/11 13:01:17;;;;;;;1.00;1.00;;;;;;;;;;4969196;28;20030;-62
2022/09/11 13:03:55;;;;;;;1.20;1.20;;;;;;;;;;4967298;28;20022;-60
2022/09/11 13:06:21;;;;;;;1.10;1.10;;;;;;;;;;4969680;28;20030;-61
2022/09/11 13:08:58;;;;;;;1.05;1.05;;;;;;;;;;4972498;28;20478;-63
2022/09/11 13:11:33;;;;;;;1.15;1.15;;;;;;;;;;4972118;28;20033;-62
2022/09/11 13:13:58;;;;;;;1.35;1.10;;;;;;;;;;4971615;28;20413;-63
2022/09/11 13:16:25;;;;;;;1.33;1.23;;;;;;;;;;4969901;28;20208;-61
2022/09/11 13:18:52;;;;;;;1.27;1.27;;;;;;;;;;4968054;28;20122;-67
2022/09/11 13:21:18;;;;;;;1.10;1.10;;;;;;;;;;4971881;28;20039;-67
2022/09/11 13:23:45;;;;;;;1.10;1.10;;;;;;;;;;4970630;28;20668;-67
2022/09/11 13:26:22;;;;;;;1.73;1.58;;;;;;;;;;4972744;28;20033;-67
2022/09/11 13:28:49;;;;;;;1.05;1.05;;;;;;;;;;4972742;28;20046;-67
2022/09/11 13:31:22;;;;;;;1.15;1.10;;;;;;;;;;4972853;28;20139;-68
2022/09/11 13:33:49;;;;;;;1.13;1.13;;;;;;;;;;4971922;28;20027;-67
2022/09/11 13:36:15;;;;;;;1.02;1.02;;;;;;;;;;4979492;28;20023;-68
2022/09/11 13:38:41;;;;;;;0.98;0.98;;;;;;;;;;4972748;28;20089;-66
2022/09/11 13:41:12;;;;;;;1.00;1.00;;;;;;;;;;4972824;28;20031;-67
2022/09/11 13:43:40;;;;;;;1.10;1.10;;;;;;;;;;4972704;28;20023;-67
2022/09/11 13:46:25;;;;;;;1.10;1.10;;;;;;;;;;4972947;28;20054;-67
2022/09/11 13:48:50;;;;;;;;;;;;;;;;;;4971564;28;20058;-67
2022/09/11 13:51:18;;;;;;;1.00;1.00;;;;;;;;;;4971003;28;20008;-68
2022/09/11 13:53:45;;;;;;;1.00;1.00;;;;;;;;;;4971617;28;20420;-67
2022/09/11 13:56:19;;;;;;;0.95;0.95;;;;;;;;;;4971870;28;20075;-68
2022/09/11 13:58:45;;;;;;;0.82;0.82;;;;;;;;;;4967498;28;20046;-67
2022/09/11 14:01:11;;;;;;;1.10;1.10;;;;;;;;;;4970003;28;20121;-66
2022/09/11 14:03:38;;;;;;;0.82;0.82;;;;;;;;;;4967427;28;20038;-66
2022/09/11 14:06:08;;;;;;;1.20;1.20;;;;;;;;;;4970164;28;20034;-67
2022/09/11 14:08:39;;;;;;;0.95;0.95;;;;;;;;;;4974560;28;20046;-68
2022/09/11 14:11:05;;;;;;;1.05;1.05;;;;;;;;;;4972466;28;20026;-68
2022/09/11 14:13:48;;;;;;;0.93;0.93;;;;;;;;;;4977075;28;20023;-64
2022/09/11 14:16:13;;;;;;;0.90;0.90;;;;;;;;;;4976081;28;20481;-65
2022/09/11 14:18:40;;;;;;;0.90;0.82;;;;;;;;;;4974878;28;20041;-64
2022/09/11 14:21:12;;;;;;;1.23;1.10;;;;;;;;;;4974128;28;20041;-63
2022/09/11 14:23:46;;;;;;;0.98;0.98;;;;;;;;;;4971895;28;20076;-65
2022/09/11 14:26:16;;;;;;;0.90;0.90;;;;;;;;;;4972695;28;20030;-64
2022/09/11 14:28:55;;;;;;;1.85;1.05;;;;;;;;;;4971204;28;20061;-66
2022/09/11 14:31:37;;;;;;;1.52;1.15;;;;;;;;;;4973823;28;20023;-71
2022/09/11 14:34:11;;;;;;;1.00;1.00;;;;;;;;;;4972366;28;20027;-72
2022/09/11 14:36:57;;;;;;;1.00;1.00;;;;;;;;;;4975049;28;20034;-70
2022/09/11 14:39:24;;;;;;;1.00;1.00;;;;;;;;;;4976169;28;20125;-68
2022/09/11 14:41:49;;;;;;;1.00;1.00;;;;;;;;;;4975216;28;20556;-68
2022/09/11 14:44:16;;;;;;;0.90;0.90;;;;;;;;;;4974783;28;20049;-70
2022/09/11 14:46:42;;;;;;;0.85;0.85;;;;;;;;;;4975228;28;20027;-70
2022/09/11 14:49:08;;;;;;;0.80;0.80;;;;;;;;;;4975904;28;20069;-69
2022/09/11 14:51:34;;;;;;;0.93;0.93;;;;;;;;;;4977321;28;20134;-71
2022/09/11 14:53:59;;;;;;;0.75;0.75;;;;;;;;;;4976559;28;20023;-70